sensor_id;sensor_type;location;lat;lon;timestamp;pressure;altitude;pressure_sealevel;temperature;humidity
24045;BME280;26257;49.442;8.422;2022-10-22T00:00:22;100036.91;;;19.46;100.00
24045;BME280;26257;49.442;8.422;2022-10-22T00:02:47;100035.13;;;19.99;100.00
24045;BME280;26257;49.442;8.422;2022-10-22T00:05:13;100042.81;;;19.83;100.00
24045;BME280;26257;49.442;8.422;2022-10-22T00:07:38;100037.28;;;19.61;100.00
24045;BME280;26257;49.442;8.422;2022-10-22T00:10:05;100043.06;;;19.49;100.00
24045;BME280;26257;49.442;8.422;2022-10-22T00:12:30;100058.53;;;19.40;100.00
24045;BME280;26257;49.442;8.422;2022-10-22T00:14:56;100049.75;;;19.35;100.00
24045;BME280;26257;49.442;8.422;2022-10-22T00:17:21;100041.84;;;19.30;100.00
24045;BME280;26257;49.442;8.422;2022-10-22T00:19:47;100055.22;;;19.32;100.00
24045;BME280;26257;49.442;8.422;2022-10-22T00:22:12;100059.06;;;19.23;100.00
24045;BME280;26257;49.442;8.422;2022-10-22T00:24:38;100055.88;;;19.10;100.00
24045;BME280;26257;49.442;8.422;2022-10-22T00:27:05;100069.44;;;18.75;100.00
24045;BME280;26257;49.442;8.422;2022-10-22T00:29:31;100053.38;;;18.75;100.00
24045;BME280;26257;49.442;8.422;2022-10-22T00:31:56;100051.81;;;18.68;100.00
24045;BME280;26257;49.442;8.422;2022-10-22T00:34:22;100066.72;;;18.77;100.00
24045;BME280;26257;49.442;8.422;2022-10-22T00:36:48;100079.56;;;18.32;100.00
24045;BME280;26257;49.442;8.422;2022-10-22T00:39:15;100075.41;;;18.54;100.00
24045;BME280;26257;49.442;8.422;2022-10-22T00:41:42;100086.28;;;18.48;100.00
24045;BME280;26257;49.442;8.422;2022-10-22T00:47:12;100088.13;;;18.44;100.00
24045;BME280;26257;49.442;8.422;2022-10-22T00:49:38;100079.09;;;18.81;100.00
24045;BME280;26257;49.442;8.422;2022-10-22T00:52:04;100086.56;;;18.36;100.00
24045;BME280;26257;49.442;8.422;2022-10-22T00:54:29;100081.56;;;18.24;100.00
24045;BME280;26257;49.442;8.422;2022-10-22T00:56:55;100081.50;;;18.27;100.00
24045;BME280;26257;49.442;8.422;2022-10-22T00:59:20;100079.97;;;18.51;100.00
24045;BME280;26257;49.442;8.422;2022-10-22T01:01:46;100080.09;;;18.44;100.00
24045;BME280;26257;49.442;8.422;2022-10-22T01:04:12;100079.88;;;18.20;100.00
24045;BME280;26257;49.442;8.422;2022-10-22T01:06:38;100085.25;;;18.54;100.00
24045;BME280;26257;49.442;8.422;2022-10-22T01:14:45;100105.59;;;18.25;100.00
24045;BME280;26257;49.442;8.422;2022-10-22T01:17:47;100109.97;;;18.28;100.00
24045;BME280;26257;49.442;8.422;2022-10-22T01:31:08;100120.78;;;18.25;100.00
24045;BME280;26257;49.442;8.422;2022-10-22T01:33:36;100122.66;;;18.20;100.00
24045;BME280;26257;49.442;8.422;2022-10-22T01:36:03;100117.69;;;18.06;100.00
24045;BME280;26257;49.442;8.422;2022-10-22T01:38:29;100114.94;;;18.09;100.00
24045;BME280;26257;49.442;8.422;2022-10-22T01:40:56;100118.94;;;17.92;100.00
24045;BME280;26257;49.442;8.422;2022-10-22T01:43:22;100113.78;;;17.85;100.00
24045;BME280;26257;49.442;8.422;2022-10-22T01:45:55;100126.06;;;17.93;100.00
24045;BME280;26257;49.442;8.422;2022-10-22T01:59:06;100101.06;;;17.58;100.00
24045;BME280;26257;49.442;8.422;2022-10-22T02:02:03;100100.44;;;17.84;100.00
24045;BME280;26257;49.442;8.422;2022-10-22T02:04:42;100091.94;;;18.02;100.00
24045;BME280;26257;49.442;8.422;2022-10-22T02:07:13;100095.13;;;17.82;100.00
24045;BME280;26257;49.442;8.422;2022-10-22T02:09:40;100084.06;;;17.98;100.00
24045;BME280;26257;49.442;8.422;2022-10-22T02:12:06;100087.47;;;18.03;100.00
24045;BME280;26257;49.442;8.422;2022-10-22T02:14:36;100082.53;;;18.21;100.00
24045;BME280;26257;49.442;8.422;2022-10-22T02:17:06;100081.91;;;18.44;100.00
24045;BME280;26257;49.442;8.422;2022-10-22T02:22:16;100070.28;;;18.45;100.00
24045;BME280;26257;49.442;8.422;2022-10-22T02:24:42;100067.78;;;18.71;100.00
24045;BME280;26257;49.442;8.422;2022-10-22T02:27:08;100067.50;;;18.80;100.00
24045;BME280;26257;49.442;8.422;2022-10-22T02:30:00;100071.47;;;18.67;100.00
24045;BME280;26257;49.442;8.422;2022-10-22T02:32:32;100065.34;;;18.93;100.00
24045;BME280;26257;49.442;8.422;2022-10-22T02:34:59;100060.75;;;18.98;100.00
24045;BME280;26257;49.442;8.422;2022-10-22T02:37:26;100053.53;;;18.71;100.00
24045;BME280;26257;49.442;8.422;2022-10-22T02:39:53;100060.84;;;18.64;100.00
24045;BME280;26257;49.442;8.422;2022-10-22T02:42:22;100062.41;;;18.40;100.00
24045;BME280;26257;49.442;8.422;2022-10-22T02:44:47;100054.06;;;18.51;100.00
24045;BME280;26257;49.442;8.422;2022-10-22T02:47:13;100042.97;;;18.66;100.00
24045;BME280;26257;49.442;8.422;2022-10-22T03:19:31;100062.84;;;18.87;100.00
24045;BME280;26257;49.442;8.422;2022-10-22T03:22:13;100067.56;;;19.36;100.00
24045;BME280;26257;49.442;8.422;2022-10-22T03:24:48;100062.22;;;19.36;100.00
24045;BME280;26257;49.442;8.422;2022-10-22T03:27:17;100068.63;;;19.32;100.00
24045;BME280;26257;49.442;8.422;2022-10-22T03:29:44;100076.56;;;19.05;100.00
24045;BME280;26257;49.442;8.422;2022-10-22T03:32:11;100098.56;;;18.55;100.00
24045;BME280;26257;49.442;8.422;2022-10-22T03:34:37;100124.81;;;18.39;100.00
24045;BME280;26257;49.442;8.422;2022-10-22T03:37:02;100131.47;;;18.25;100.00
24045;BME280;26257;49.442;8.422;2022-10-22T03:39:30;100134.16;;;18.25;100.00
24045;BME280;26257;49.442;8.422;2022-10-22T03:41:56;100142.31;;;18.19;100.00
24045;BME280;26257;49.442;8.422;2022-10-22T03:44:22;100138.03;;;18.47;100.00
24045;BME280;26257;49.442;8.422;2022-10-22T03:46:48;100140.47;;;18.21;100.00
24045;BME280;26257;49.442;8.422;2022-10-22T03:49:13;100119.63;;;18.00;100.00
24045;BME280;26257;49.442;8.422;2022-10-22T03:51:39;100136.97;;;17.83;100.00
24045;BME280;26257;49.442;8.422;2022-10-22T03:54:05;100131.34;;;17.94;100.00
24045;BME280;26257;49.442;8.422;2022-10-22T03:56:31;100138.69;;;17.86;100.00
24045;BME280;26257;49.442;8.422;2022-10-22T03:58:58;100131.59;;;17.85;100.00
24045;BME280;26257;49.442;8.422;2022-10-22T04:01:25;100132.81;;;17.72;100.00
24045;BME280;26257;49.442;8.422;2022-10-22T04:03:51;100154.44;;;17.61;100.00
24045;BME280;26257;49.442;8.422;2022-10-22T04:06:16;100163.06;;;17.72;100.00
24045;BME280;26257;49.442;8.422;2022-10-22T04:08:43;100173.59;;;17.80;100.00
24045;BME280;26257;49.442;8.422;2022-10-22T04:11:10;100175.56;;;17.70;100.00
24045;BME280;26257;49.442;8.422;2022-10-22T04:13:36;100189.63;;;17.78;100.00
24045;BME280;26257;49.442;8.422;2022-10-22T04:16:10;100189.44;;;17.86;100.00
24045;BME280;26257;49.442;8.422;2022-10-22T04:18:37;100178.75;;;17.87;100.00
24045;BME280;26257;49.442;8.422;2022-10-22T04:21:03;100178.50;;;17.97;100.00
24045;BME280;26257;49.442;8.422;2022-10-22T04:23:28;100190.72;;;18.08;100.00
24045;BME280;26257;49.442;8.422;2022-10-22T04:25:58;100190.66;;;18.10;100.00
24045;BME280;26257;49.442;8.422;2022-10-22T04:28:24;100203.50;;;17.96;100.00
24045;BME280;26257;49.442;8.422;2022-10-22T04:30:50;100201.28;;;17.76;100.00
24045;BME280;26257;49.442;8.422;2022-10-22T04:33:15;100204.97;;;17.70;100.00
24045;BME280;26257;49.442;8.422;2022-10-22T04:35:40;100219.13;;;17.74;100.00
24045;BME280;26257;49.442;8.422;2022-10-22T04:38:06;100215.53;;;17.35;100.00
24045;BME280;26257;49.442;8.422;2022-10-22T04:40:31;100228.75;;;17.40;100.00
24045;BME280;26257;49.442;8.422;2022-10-22T04:42:56;100221.34;;;17.55;100.00
24045;BME280;26257;49.442;8.422;2022-10-22T04:45:23;100219.78;;;17.44;100.00
24045;BME280;26257;49.442;8.422;2022-10-22T04:47:49;100225.38;;;17.74;100.00
24045;BME280;26257;49.442;8.422;2022-10-22T04:50:14;100223.94;;;17.58;100.00
24045;BME280;26257;49.442;8.422;2022-10-22T04:52:39;100223.94;;;17.58;100.00
24045;BME280;26257;49.442;8.422;2022-10-22T04:55:05;100225.72;;;17.59;100.00
24045;BME280;26257;49.442;8.422;2022-10-22T04:57:31;100219.50;;;17.57;100.00
24045;BME280;26257;49.442;8.422;2022-10-22T04:59:56;100219.66;;;17.89;100.00
24045;BME280;26257;49.442;8.422;2022-10-22T05:02:22;100215.38;;;17.82;100.00
24045;BME280;26257;49.442;8.422;2022-10-22T05:04:47;100217.22;;;17.80;100.00
24045;BME280;26257;49.442;8.422;2022-10-22T05:07:13;100224.81;;;17.99;100.00
24045;BME280;26257;49.442;8.422;2022-10-22T05:09:39;100235.06;;;17.78;100.00
24045;BME280;26257;49.442;8.422;2022-10-22T05:12:04;100246.19;;;17.59;100.00
24045;BME280;26257;49.442;8.422;2022-10-22T05:14:30;100244.91;;;17.76;100.00
24045;BME280;26257;49.442;8.422;2022-10-22T05:16:56;100245.75;;;17.78;100.00
24045;BME280;26257;49.442;8.422;2022-10-22T05:19:26;100240.50;;;18.12;100.00
24045;BME280;26257;49.442;8.422;2022-10-22T05:21:53;100235.75;;;17.86;100.00
24045;BME280;26257;49.442;8.422;2022-10-22T05:24:20;100252.38;;;18.01;100.00
24045;BME280;26257;49.442;8.422;2022-10-22T05:26:48;100254.16;;;18.00;100.00
24045;BME280;26257;49.442;8.422;2022-10-22T05:29:32;100248.56;;;17.72;100.00
24045;BME280;26257;49.442;8.422;2022-10-22T05:32:00;100246.75;;;17.73;100.00
24045;BME280;26257;49.442;8.422;2022-10-22T05:34:26;100260.41;;;17.61;100.00
24045;BME280;26257;49.442;8.422;2022-10-22T05:36:51;100250.84;;;17.89;100.00
24045;BME280;26257;49.442;8.422;2022-10-22T05:39:16;100255.41;;;17.85;100.00
24045;BME280;26257;49.442;8.422;2022-10-22T05:41:42;100268.13;;;17.74;100.00
24045;BME280;26257;49.442;8.422;2022-10-22T05:44:10;100255.31;;;17.88;100.00
24045;BME280;26257;49.442;8.422;2022-10-22T05:46:36;100253.56;;;17.87;100.00
24045;BME280;26257;49.442;8.422;2022-10-22T05:49:03;100271.56;;;17.79;100.00
24045;BME280;26257;49.442;8.422;2022-10-22T05:51:31;100271.63;;;17.76;100.00
24045;BME280;26257;49.442;8.422;2022-10-22T05:53:59;100277.25;;;17.64;100.00
24045;BME280;26257;49.442;8.422;2022-10-22T05:56:28;100277.44;;;17.55;100.00
24045;BME280;26257;49.442;8.422;2022-10-22T05:58:53;100285.81;;;17.78;100.00
24045;BME280;26257;49.442;8.422;2022-10-22T06:01:24;100282.97;;;17.86;100.00
24045;BME280;26257;49.442;8.422;2022-10-22T06:03:56;100287.13;;;17.99;100.00
24045;BME280;26257;49.442;8.422;2022-10-22T06:06:34;100296.97;;;17.57;100.00
24045;BME280;26257;49.442;8.422;2022-10-22T06:09:04;100287.78;;;17.70;100.00
24045;BME280;26257;49.442;8.422;2022-10-22T06:11:30;100290.38;;;17.75;100.00
24045;BME280;26257;49.442;8.422;2022-10-22T06:13:56;100303.00;;;17.67;100.00
24045;BME280;26257;49.442;8.422;2022-10-22T06:16:21;100303.28;;;17.95;100.00
24045;BME280;26257;49.442;8.422;2022-10-22T06:18:47;100305.84;;;18.01;100.00
24045;BME280;26257;49.442;8.422;2022-10-22T06:21:14;100305.59;;;17.71;100.00
24045;BME280;26257;49.442;8.422;2022-10-22T06:23:41;100306.59;;;17.66;100.00
24045;BME280;26257;49.442;8.422;2022-10-22T06:26:07;100316.47;;;17.62;100.00
24045;BME280;26257;49.442;8.422;2022-10-22T06:28:34;100318.22;;;17.63;100.00
24045;BME280;26257;49.442;8.422;2022-10-22T06:31:00;100326.69;;;17.83;100.00
24045;BME280;26257;49.442;8.422;2022-10-22T06:33:27;100319.56;;;17.84;100.00
24045;BME280;26257;49.442;8.422;2022-10-22T06:35:53;100336.28;;;17.94;100.00
24045;BME280;26257;49.442;8.422;2022-10-22T06:38:19;100337.63;;;18.13;100.00
24045;BME280;26257;49.442;8.422;2022-10-22T06:40:44;100338.47;;;18.15;100.00
24045;BME280;26257;49.442;8.422;2022-10-22T06:43:10;100342.00;;;18.17;100.00
24045;BME280;26257;49.442;8.422;2022-10-22T06:45:36;100334.81;;;18.19;100.00
24045;BME280;26257;49.442;8.422;2022-10-22T06:48:02;100343.50;;;18.30;100.00
24045;BME280;26257;49.442;8.422;2022-10-22T06:50:27;100349.16;;;18.15;100.00
24045;BME280;26257;49.442;8.422;2022-10-22T06:52:53;100356.56;;;18.42;100.00
24045;BME280;26257;49.442;8.422;2022-10-22T06:55:18;100359.94;;;18.52;100.00
24045;BME280;26257;49.442;8.422;2022-10-22T06:57:43;100366.22;;;18.51;100.00
24045;BME280;26257;49.442;8.422;2022-10-22T07:00:09;100375.28;;;18.42;100.00
24045;BME280;26257;49.442;8.422;2022-10-22T07:02:35;100370.94;;;18.38;100.00
24045;BME280;26257;49.442;8.422;2022-10-22T07:05:00;100376.78;;;18.55;100.00
24045;BME280;26257;49.442;8.422;2022-10-22T07:07:25;100379.03;;;18.35;100.00
24045;BME280;26257;49.442;8.422;2022-10-22T07:09:51;100382.41;;;18.80;100.00
24045;BME280;26257;49.442;8.422;2022-10-22T07:12:16;100390.44;;;18.81;100.00
24045;BME280;26257;49.442;8.422;2022-10-22T07:14:42;100392.28;;;18.79;100.00
24045;BME280;26257;49.442;8.422;2022-10-22T07:17:08;100382.84;;;18.98;100.00
24045;BME280;26257;49.442;8.422;2022-10-22T07:19:33;100382.31;;;19.20;100.00
24045;BME280;26257;49.442;8.422;2022-10-22T07:21:59;100389.31;;;19.25;100.00
24045;BME280;26257;49.442;8.422;2022-10-22T07:24:24;100390.31;;;19.55;100.00
24045;BME280;26257;49.442;8.422;2022-10-22T07:26:50;100381.34;;;19.22;100.00
24045;BME280;26257;49.442;8.422;2022-10-22T07:29:15;100390.34;;;19.20;100.00
24045;BME280;26257;49.442;8.422;2022-10-22T07:31:41;100391.38;;;19.49;100.00
24045;BME280;26257;49.442;8.422;2022-10-22T07:34:07;100392.72;;;19.32;100.00
24045;BME280;26257;49.442;8.422;2022-10-22T07:36:33;100400.16;;;19.21;100.00
24045;BME280;26257;49.442;8.422;2022-10-22T07:38:59;100399.09;;;19.26;100.00
24045;BME280;26257;49.442;8.422;2022-10-22T07:41:25;100397.84;;;19.41;100.00
24045;BME280;26257;49.442;8.422;2022-10-22T07:43:52;100395.56;;;19.24;100.00
24045;BME280;26257;49.442;8.422;2022-10-22T07:46:18;100406.13;;;19.64;100.00
24045;BME280;26257;49.442;8.422;2022-10-22T07:48:43;100404.22;;;19.69;100.00
24045;BME280;26257;49.442;8.422;2022-10-22T07:51:09;100410.53;;;19.66;100.00
24045;BME280;26257;49.442;8.422;2022-10-22T07:53:34;100413.03;;;19.40;100.00
24045;BME280;26257;49.442;8.422;2022-10-22T07:56:00;100412.38;;;19.31;100.00
24045;BME280;26257;49.442;8.422;2022-10-22T07:58:25;100420.09;;;19.43;100.00
24045;BME280;26257;49.442;8.422;2022-10-22T08:00:54;100414.03;;;19.35;100.00
24045;BME280;26257;49.442;8.422;2022-10-22T08:03:20;100418.44;;;19.39;100.00
24045;BME280;26257;49.442;8.422;2022-10-22T08:05:46;100414.53;;;19.50;100.00
24045;BME280;26257;49.442;8.422;2022-10-22T08:08:13;100416.38;;;19.50;100.00
24045;BME280;26257;49.442;8.422;2022-10-22T08:10:38;100414.00;;;19.02;100.00
24045;BME280;26257;49.442;8.422;2022-10-22T08:13:05;100421.84;;;19.08;100.00
24045;BME280;26257;49.442;8.422;2022-10-22T08:15:31;100411.41;;;19.33;100.00
24045;BME280;26257;49.442;8.422;2022-10-22T08:17:56;100427.38;;;19.38;100.00
24045;BME280;26257;49.442;8.422;2022-10-22T08:20:22;100424.72;;;19.38;100.00
24045;BME280;26257;49.442;8.422;2022-10-22T08:22:47;100433.41;;;19.80;100.00
24045;BME280;26257;49.442;8.422;2022-10-22T08:25:13;100428.81;;;19.52;100.00
24045;BME280;26257;49.442;8.422;2022-10-22T08:27:39;100434.44;;;19.42;100.00
24045;BME280;26257;49.442;8.422;2022-10-22T08:30:06;100442.69;;;19.66;100.00
24045;BME280;26257;49.442;8.422;2022-10-22T08:32:31;100440.63;;;19.44;100.00
24045;BME280;26257;49.442;8.422;2022-10-22T08:34:57;100448.19;;;19.62;100.00
24045;BME280;26257;49.442;8.422;2022-10-22T08:37:22;100455.56;;;19.86;100.00
24045;BME280;26257;49.442;8.422;2022-10-22T08:39:48;100450.56;;;19.73;100.00
24045;BME280;26257;49.442;8.422;2022-10-22T08:45:14;100450.13;;;20.20;100.00
24045;BME280;26257;49.442;8.422;2022-10-22T08:50:40;100457.97;;;20.27;100.00
24045;BME280;26257;49.442;8.422;2022-10-22T09:26:57;100453.91;;;25.15;64.83
24045;BME280;26257;49.442;8.422;2022-10-22T09:29:24;100447.09;;;26.28;58.61
24045;BME280;26257;49.442;8.422;2022-10-22T09:31:53;100439.25;;;26.40;57.14
24045;BME280;26257;49.442;8.422;2022-10-22T09:34:19;100440.13;;;27.04;54.69
24045;BME280;26257;49.442;8.422;2022-10-22T09:36:45;100436.84;;;27.44;51.35
24045;BME280;26257;49.442;8.422;2022-10-22T09:39:43;100445.44;;;26.74;52.68
24045;BME280;26257;49.442;8.422;2022-10-22T09:42:09;100444.69;;;27.65;51.04
24045;BME280;26257;49.442;8.422;2022-10-22T09:44:36;100436.75;;;27.30;50.58
24045;BME280;26257;49.442;8.422;2022-10-22T09:47:12;100446.94;;;28.02;49.68
24045;BME280;26257;49.442;8.422;2022-10-22T09:52:38;100448.69;;;28.59;45.34
24045;BME280;26257;49.442;8.422;2022-10-22T09:55:16;100444.47;;;27.97;46.78
24045;BME280;26257;49.442;8.422;2022-10-22T09:57:43;100444.56;;;27.21;49.04
24045;BME280;26257;49.442;8.422;2022-10-22T10:00:10;100440.56;;;28.31;47.63
24045;BME280;26257;49.442;8.422;2022-10-22T10:02:39;100448.88;;;28.56;45.56
24045;BME280;26257;49.442;8.422;2022-10-22T10:05:07;100456.88;;;29.41;45.70
24045;BME280;26257;49.442;8.422;2022-10-22T10:07:34;100458.44;;;29.45;43.55
24045;BME280;26257;49.442;8.422;2022-10-22T10:10:00;100454.47;;;30.28;41.74
24045;BME280;26257;49.442;8.422;2022-10-22T10:17:49;100458.59;;;31.44;38.19
24045;BME280;26257;49.442;8.422;2022-10-22T10:20:38;100457.59;;;30.97;39.39
24045;BME280;26257;49.442;8.422;2022-10-22T10:33:44;100467.56;;;30.61;39.64
24045;BME280;26257;49.442;8.422;2022-10-22T10:39:17;100463.25;;;31.31;38.46
24045;BME280;26257;49.442;8.422;2022-10-22T10:41:57;100456.88;;;31.66;37.68
24045;BME280;26257;49.442;8.422;2022-10-22T10:50:25;100474.06;;;30.83;40.27
24045;BME280;26257;49.442;8.422;2022-10-22T10:55:48;100464.75;;;30.37;40.66
24045;BME280;26257;49.442;8.422;2022-10-22T11:01:02;100457.06;;;30.67;39.60
24045;BME280;26257;49.442;8.422;2022-10-22T11:03:43;100460.81;;;30.41;40.82
24045;BME280;26257;49.442;8.422;2022-10-22T11:06:13;100462.56;;;30.42;40.59
24045;BME280;26257;49.442;8.422;2022-10-22T11:08:51;100463.00;;;30.36;41.02
24045;BME280;26257;49.442;8.422;2022-10-22T11:11:31;100456.41;;;30.76;39.73
24045;BME280;26257;49.442;8.422;2022-10-22T11:14:24;100461.44;;;30.32;40.58
24045;BME280;26257;49.442;8.422;2022-10-22T11:17:10;100471.28;;;30.22;40.22
24045;BME280;26257;49.442;8.422;2022-10-22T11:19:51;100467.75;;;30.70;39.50
24045;BME280;26257;49.442;8.422;2022-10-22T11:22:36;100466.72;;;31.80;38.99
24045;BME280;26257;49.442;8.422;2022-10-22T11:25:28;100466.16;;;32.45;35.89
24045;BME280;26257;49.442;8.422;2022-10-22T11:28:00;100470.25;;;30.86;38.77
24045;BME280;26257;49.442;8.422;2022-10-22T11:30:32;100474.19;;;29.67;40.50
24045;BME280;26257;49.442;8.422;2022-10-22T11:33:03;100468.84;;;29.65;41.27
24045;BME280;26257;49.442;8.422;2022-10-22T11:35:33;100469.22;;;29.20;42.00
24045;BME280;26257;49.442;8.422;2022-10-22T11:38:00;100473.53;;;29.63;44.60
24045;BME280;26257;49.442;8.422;2022-10-22T11:40:38;100455.56;;;30.63;39.71
24045;BME280;26257;49.442;8.422;2022-10-22T11:45:33;100473.41;;;27.69;44.43
24045;BME280;26257;49.442;8.422;2022-10-22T12:03:42;100437.09;;;27.55;50.02
24045;BME280;26257;49.442;8.422;2022-10-22T12:11:27;100436.16;;;27.41;48.34
24045;BME280;26257;49.442;8.422;2022-10-22T12:19:37;100454.16;;;25.64;57.05
24045;BME280;26257;49.442;8.422;2022-10-22T12:24:37;100446.66;;;27.31;50.32
24045;BME280;26257;49.442;8.422;2022-10-22T12:27:19;100439.69;;;27.87;49.55
24045;BME280;26257;49.442;8.422;2022-10-22T12:29:45;100432.16;;;28.91;45.18
24045;BME280;26257;49.442;8.422;2022-10-22T12:32:13;100436.97;;;28.31;46.87
24045;BME280;26257;49.442;8.422;2022-10-22T12:34:50;100436.28;;;27.53;48.80
24045;BME280;26257;49.442;8.422;2022-10-22T12:37:17;100425.31;;;27.41;49.37
24045;BME280;26257;49.442;8.422;2022-10-22T12:39:44;100435.63;;;29.07;45.33
24045;BME280;26257;49.442;8.422;2022-10-22T12:42:15;100432.88;;;29.60;43.84
24045;BME280;26257;49.442;8.422;2022-10-22T12:44:44;100433.56;;;29.64;44.33
24045;BME280;26257;49.442;8.422;2022-10-22T12:47:17;100419.06;;;30.89;42.04
24045;BME280;26257;49.442;8.422;2022-10-22T12:49:47;100422.88;;;32.38;38.93
24045;BME280;26257;49.442;8.422;2022-10-22T12:52:17;100417.94;;;32.66;36.58
24045;BME280;26257;49.442;8.422;2022-10-22T12:54:49;100420.16;;;30.74;38.21
24045;BME280;26257;49.442;8.422;2022-10-22T12:57:17;100427.94;;;29.40;42.01
24045;BME280;26257;49.442;8.422;2022-10-22T12:59:47;100419.84;;;29.78;41.17
24045;BME280;26257;49.442;8.422;2022-10-22T13:02:23;100426.53;;;30.12;40.61
24045;BME280;26257;49.442;8.422;2022-10-22T13:08:04;100412.56;;;29.12;42.86
24045;BME280;26257;49.442;8.422;2022-10-22T13:10:38;100421.56;;;30.06;40.02
24045;BME280;26257;49.442;8.422;2022-10-22T13:13:04;100418.28;;;30.26;39.80
24045;BME280;26257;49.442;8.422;2022-10-22T13:15:36;100426.34;;;29.89;41.41
24045;BME280;26257;49.442;8.422;2022-10-22T13:18:20;100427.75;;;29.56;43.14
24045;BME280;26257;49.442;8.422;2022-10-22T13:20:57;100430.47;;;28.75;45.27
24045;BME280;26257;49.442;8.422;2022-10-22T13:23:27;100422.13;;;28.64;45.57
24045;BME280;26257;49.442;8.422;2022-10-22T13:26:22;100426.00;;;28.46;47.03
24045;BME280;26257;49.442;8.422;2022-10-22T13:28:54;100420.69;;;28.01;48.19
24045;BME280;26257;49.442;8.422;2022-10-22T13:31:34;100428.13;;;27.39;49.13
24045;BME280;26257;49.442;8.422;2022-10-22T13:34:03;100422.06;;;27.34;51.21
24045;BME280;26257;49.442;8.422;2022-10-22T13:36:31;100430.69;;;26.95;50.01
24045;BME280;26257;49.442;8.422;2022-10-22T13:38:57;100434.81;;;26.54;51.51
24045;BME280;26257;49.442;8.422;2022-10-22T13:41:24;100435.31;;;26.29;52.38
24045;BME280;26257;49.442;8.422;2022-10-22T13:43:51;100426.59;;;25.90;52.80
24045;BME280;26257;49.442;8.422;2022-10-22T13:46:17;100427.72;;;25.69;54.95
24045;BME280;26257;49.442;8.422;2022-10-22T13:48:44;100425.63;;;25.23;56.78
24045;BME280;26257;49.442;8.422;2022-10-22T13:51:17;100426.25;;;25.45;57.25
24045;BME280;26257;49.442;8.422;2022-10-22T13:53:44;100424.31;;;25.12;59.11
24045;BME280;26257;49.442;8.422;2022-10-22T13:56:15;100418.59;;;25.18;59.27
24045;BME280;26257;49.442;8.422;2022-10-22T13:58:44;100428.00;;;25.29;58.92
24045;BME280;26257;49.442;8.422;2022-10-22T14:03:45;100431.16;;;25.20;59.34
24045;BME280;26257;49.442;8.422;2022-10-22T14:06:12;100435.16;;;24.94;59.72
24045;BME280;26257;49.442;8.422;2022-10-22T14:08:39;100431.78;;;25.07;60.07
24045;BME280;26257;49.442;8.422;2022-10-22T14:11:04;100429.41;;;25.18;60.36
24045;BME280;26257;49.442;8.422;2022-10-22T14:13:30;100428.44;;;25.02;60.81
24045;BME280;26257;49.442;8.422;2022-10-22T14:15:55;100431.78;;;24.70;60.54
24045;BME280;26257;49.442;8.422;2022-10-22T14:18:24;100425.47;;;24.71;61.82
24045;BME280;26257;49.442;8.422;2022-10-22T14:20:54;100425.59;;;25.05;61.85
24045;BME280;26257;49.442;8.422;2022-10-22T14:23:23;100436.34;;;24.88;63.06
24045;BME280;26257;49.442;8.422;2022-10-22T14:25:49;100426.56;;;24.86;62.48
24045;BME280;26257;49.442;8.422;2022-10-22T14:28:18;100432.25;;;24.61;62.82
24045;BME280;26257;49.442;8.422;2022-10-22T14:30:44;100427.78;;;24.60;62.88
24045;BME280;26257;49.442;8.422;2022-10-22T14:33:14;100427.56;;;24.65;62.24
24045;BME280;26257;49.442;8.422;2022-10-22T14:35:40;100425.84;;;25.35;60.88
24045;BME280;26257;49.442;8.422;2022-10-22T14:38:05;100422.16;;;26.55;55.11
24045;BME280;26257;49.442;8.422;2022-10-22T14:40:31;100416.03;;;27.45;51.10
24045;BME280;26257;49.442;8.422;2022-10-22T14:42:56;100411.97;;;27.96;48.82
24045;BME280;26257;49.442;8.422;2022-10-22T14:45:24;100418.63;;;28.62;47.08
24045;BME280;26257;49.442;8.422;2022-10-22T14:47:50;100410.97;;;28.96;45.52
24045;BME280;26257;49.442;8.422;2022-10-22T14:50:17;100411.38;;;29.30;44.34
24045;BME280;26257;49.442;8.422;2022-10-22T14:52:43;100410.50;;;29.16;43.84
24045;BME280;26257;49.442;8.422;2022-10-22T14:55:10;100404.22;;;28.89;44.69
24045;BME280;26257;49.442;8.422;2022-10-22T14:57:36;100415.94;;;28.89;44.80
24045;BME280;26257;49.442;8.422;2022-10-22T15:00:08;100417.88;;;28.87;45.23
24045;BME280;26257;49.442;8.422;2022-10-22T15:02:33;100412.97;;;28.51;46.00
24045;BME280;26257;49.442;8.422;2022-10-22T15:04:59;100412.13;;;28.23;46.18
24045;BME280;26257;49.442;8.422;2022-10-22T15:07:24;100418.03;;;28.43;45.53
24045;BME280;26257;49.442;8.422;2022-10-22T15:09:51;100416.06;;;28.45;45.17
24045;BME280;26257;49.442;8.422;2022-10-22T15:12:17;100407.75;;;29.03;44.17
24045;BME280;26257;49.442;8.422;2022-10-22T15:14:45;100413.63;;;29.10;43.61
24045;BME280;26257;49.442;8.422;2022-10-22T15:17:11;100416.34;;;29.24;42.84
24045;BME280;26257;49.442;8.422;2022-10-22T15:19:37;100417.50;;;29.47;42.66
24045;BME280;26257;49.442;8.422;2022-10-22T15:22:03;100411.06;;;29.87;41.71
24045;BME280;26257;49.442;8.422;2022-10-22T15:24:28;100419.50;;;29.70;42.30
24045;BME280;26257;49.442;8.422;2022-10-22T15:26:54;100416.09;;;29.93;41.96
24045;BME280;26257;49.442;8.422;2022-10-22T15:29:19;100421.03;;;29.61;42.39
24045;BME280;26257;49.442;8.422;2022-10-22T15:31:50;100428.22;;;29.09;43.24
24045;BME280;26257;49.442;8.422;2022-10-22T15:34:20;100428.22;;;28.40;45.17
24045;BME280;26257;49.442;8.422;2022-10-22T15:36:47;100429.84;;;27.40;47.02
24045;BME280;26257;49.442;8.422;2022-10-22T15:39:13;100429.34;;;26.71;49.63
24045;BME280;26257;49.442;8.422;2022-10-22T15:41:38;100433.13;;;26.03;52.34